createdAt,value
2018-12-19T00:02:19.605Z,12.30
2018-12-19T00:04:48.077Z,12.47
2018-12-19T00:07:16.270Z,11.10
2018-12-19T00:09:44.472Z,13.03
2018-12-19T00:12:12.620Z,10.27
2018-12-19T00:14:41.332Z,11.30
2018-12-19T00:17:09.472Z,8.37
2018-12-19T00:19:37.677Z,8.60
2018-12-19T00:22:05.923Z,9.20
2018-12-19T00:24:34.054Z,15.37
2018-12-19T00:27:02.288Z,12.00
2018-12-19T00:29:30.481Z,11.10
2018-12-19T00:31:58.604Z,8.77
2018-12-19T00:34:26.847Z,8.73
2018-12-19T00:36:55.000Z,10.60
2018-12-19T00:39:23.130Z,8.93
2018-12-19T00:41:51.253Z,7.70
2018-12-19T00:44:19.391Z,9.17
2018-12-19T00:46:47.742Z,7.60
2018-12-19T00:49:15.970Z,7.00
2018-12-19T00:51:44.106Z,9.87
2018-12-19T00:54:12.833Z,8.20
2018-12-19T00:56:42.213Z,8.17
2018-12-19T00:59:10.409Z,8.00
2018-12-19T01:01:39.506Z,6.07
2018-12-19T01:04:07.647Z,7.23
2018-12-19T01:06:35.806Z,7.60
2018-12-19T01:09:06.177Z,8.67
2018-12-19T01:11:35.160Z,7.43
2018-12-19T01:14:03.676Z,8.03
2018-12-19T01:16:31.866Z,7.97
2018-12-19T01:19:00.071Z,6.50
2018-12-19T01:21:28.215Z,8.13
2018-12-19T01:23:56.491Z,7.00
2018-12-19T01:26:24.735Z,6.37
2018-12-19T01:28:53.029Z,7.13
2018-12-19T01:31:21.367Z,6.87
2018-12-19T01:33:49.678Z,6.27
2018-12-19T01:36:18.011Z,7.83
2018-12-19T01:38:46.317Z,5.77
2018-12-19T01:41:14.470Z,7.17
2018-12-19T01:43:42.737Z,8.17
2018-12-19T01:46:11.010Z,6.00
2018-12-19T01:48:39.695Z,4.70
2018-12-19T01:51:07.826Z,6.27
2018-12-19T01:53:35.963Z,8.07
2018-12-19T01:56:04.420Z,7.03
2018-12-19T01:58:32.566Z,9.30
2018-12-19T02:01:00.798Z,5.73
2018-12-19T02:03:29.083Z,6.00
2018-12-19T02:05:57.211Z,6.87
2018-12-19T02:08:25.335Z,6.93
2018-12-19T02:10:53.539Z,6.77
2018-12-19T02:13:21.665Z,7.40
2018-12-19T02:15:49.853Z,7.20
2018-12-19T02:18:17.988Z,6.63
2018-12-19T02:20:46.133Z,6.57
2018-12-19T02:23:14.461Z,4.77
2018-12-19T02:25:42.759Z,5.20
2018-12-19T02:28:10.920Z,6.97
2018-12-19T02:30:39.065Z,10.70
2018-12-19T02:33:07.262Z,5.27
2018-12-19T02:35:35.470Z,8.47
2018-12-19T02:38:03.681Z,6.03
2018-12-19T02:40:31.828Z,5.77
2018-12-19T02:43:00.069Z,5.77
2018-12-19T02:45:28.783Z,5.07
2018-12-19T02:47:57.085Z,5.03
2018-12-19T02:50:25.351Z,7.57
2018-12-19T02:52:53.479Z,6.43
2018-12-19T02:55:21.687Z,6.00
2018-12-19T02:57:49.864Z,9.53
2018-12-19T03:00:18.058Z,8.53
2018-12-19T03:02:46.177Z,4.87
2018-12-19T03:05:14.377Z,4.80
2018-12-19T03:07:42.572Z,5.23
2018-12-19T03:10:10.824Z,6.37
2018-12-19T03:12:39.184Z,7.37
2018-12-19T03:15:08.283Z,6.43
2018-12-19T03:17:36.416Z,6.87
2018-12-19T03:20:04.990Z,6.60
2018-12-19T03:22:33.486Z,4.57
2018-12-19T03:25:01.676Z,5.30
2018-12-19T03:27:30.010Z,5.87
2018-12-19T03:29:58.138Z,6.13
2018-12-19T03:32:26.444Z,6.57
2018-12-19T03:34:54.680Z,5.60
2018-12-19T03:37:22.939Z,6.13
2018-12-19T03:39:51.107Z,5.23
2018-12-19T03:42:19.302Z,5.30
2018-12-19T03:44:48.659Z,5.87
2018-12-19T03:47:16.888Z,4.53
2018-12-19T03:49:45.371Z,6.03
2018-12-19T03:52:13.760Z,6.33
2018-12-19T03:54:41.899Z,9.20
2018-12-19T03:57:10.479Z,6.87
2018-12-19T03:59:39.588Z,5.20
2018-12-19T04:02:09.395Z,7.70
2018-12-19T04:04:37.686Z,7.73
2018-12-19T04:07:05.869Z,4.23
2018-12-19T04:09:34.086Z,4.97
2018-12-19T04:12:02.234Z,5.90
2018-12-19T04:14:30.543Z,5.90
2018-12-19T04:16:58.673Z,6.63
2018-12-19T04:19:26.944Z,6.43
2018-12-19T04:21:55.250Z,4.63
2018-12-19T04:24:23.629Z,5.63
2018-12-19T04:26:51.798Z,5.87
2018-12-19T04:29:19.928Z,5.13
2018-12-19T04:31:48.223Z,7.47
2018-12-19T04:34:16.555Z,6.50
2018-12-19T04:36:44.834Z,5.10
2018-12-19T04:39:12.975Z,4.67
2018-12-19T04:41:41.249Z,6.90
2018-12-19T04:44:09.438Z,6.40
2018-12-19T04:46:37.778Z,5.67
2018-12-19T04:49:05.990Z,7.90
2018-12-19T04:51:34.117Z,6.60
2018-12-19T04:54:02.301Z,7.97
2018-12-19T04:56:30.682Z,6.10
2018-12-19T04:58:58.865Z,5.67
2018-12-19T05:01:27.166Z,9.17
2018-12-19T05:03:55.422Z,7.60
2018-12-19T05:06:23.642Z,7.53
2018-12-19T05:08:51.801Z,7.30
2018-12-19T05:11:19.916Z,8.90
2018-12-19T05:13:48.825Z,9.50
2018-12-19T05:16:16.970Z,9.47
2018-12-19T05:18:45.121Z,11.13
2018-12-19T05:21:13.333Z,10.80
2018-12-19T05:23:41.477Z,9.17
2018-12-19T05:26:09.667Z,8.57
2018-12-19T05:28:38.265Z,7.80
2018-12-19T05:31:06.472Z,9.13
2018-12-19T05:33:34.665Z,7.87
2018-12-19T05:36:02.888Z,9.40
2018-12-19T05:38:31.113Z,6.83
2018-12-19T05:40:59.236Z,8.27
2018-12-19T05:43:27.473Z,8.50
2018-12-19T05:45:55.662Z,7.40
2018-12-19T05:48:23.958Z,11.47
2018-12-19T05:50:52.270Z,8.73
2018-12-19T05:53:20.990Z,9.83
2018-12-19T05:55:49.132Z,9.77
2018-12-19T05:58:17.304Z,7.80
2018-12-19T06:00:45.511Z,7.60
2018-12-19T06:03:13.641Z,9.33
2018-12-19T06:05:42.736Z,8.20
2018-12-19T06:08:10.898Z,10.50
2018-12-19T06:10:39.242Z,7.80
2018-12-19T06:13:07.433Z,10.83
2018-12-19T06:15:35.651Z,10.80
2018-12-19T06:18:04.544Z,8.63
2018-12-19T06:20:33.374Z,8.27
2018-12-19T06:23:01.690Z,7.50
2018-12-19T06:25:29.986Z,9.50
2018-12-19T06:27:58.382Z,9.70
2018-12-19T06:30:27.015Z,7.40
2018-12-19T06:32:55.432Z,10.03
2018-12-19T06:35:23.606Z,7.90
2018-12-19T06:37:51.813Z,9.37
2018-12-19T06:40:20.221Z,9.20
2018-12-19T06:42:48.427Z,10.00
2018-12-19T06:45:17.137Z,10.43
2018-12-19T06:47:45.353Z,9.27
2018-12-19T06:50:13.650Z,9.87
2018-12-19T06:52:41.851Z,9.37
2018-12-19T06:55:10.800Z,8.13
2018-12-19T06:57:38.988Z,8.60
2018-12-19T07:00:07.713Z,9.73
2018-12-19T07:02:35.906Z,8.67
2018-12-19T07:05:04.616Z,9.60
2018-12-19T07:07:32.844Z,8.50
2018-12-19T07:10:00.945Z,10.67
2018-12-19T07:12:29.320Z,9.47
2018-12-19T07:14:57.473Z,12.03
2018-12-19T07:17:25.667Z,9.63
2018-12-19T07:19:53.843Z,8.43
2018-12-19T07:22:22.325Z,9.07
2018-12-19T07:24:50.516Z,8.67
2018-12-19T07:27:18.758Z,10.30
2018-12-19T07:29:47.036Z,10.33
2018-12-19T07:32:15.229Z,11.23
2018-12-19T07:34:44.346Z,10.83
2018-12-19T07:37:12.611Z,11.07
2018-12-19T07:39:40.855Z,12.00
2018-12-19T07:42:09.249Z,12.23
2018-12-19T07:44:37.473Z,13.87
2018-12-19T07:47:05.658Z,11.50
2018-12-19T07:49:34.766Z,16.33
2018-12-19T07:52:02.910Z,14.53
2018-12-19T07:54:31.305Z,14.37
2018-12-19T07:56:59.536Z,14.90
2018-12-19T07:59:27.741Z,16.07
2018-12-19T08:01:55.979Z,13.13
2018-12-19T08:04:24.494Z,14.37
2018-12-19T08:06:52.656Z,14.60
2018-12-19T08:09:20.845Z,15.40
2018-12-19T08:11:49.011Z,13.23
2018-12-19T08:14:17.259Z,18.33
2018-12-19T08:16:45.578Z,20.13
2018-12-19T08:19:13.891Z,16.50
2018-12-19T08:21:42.574Z,15.90
2018-12-19T08:24:10.842Z,17.60
2018-12-19T08:26:39.056Z,17.23
2018-12-19T08:29:07.454Z,17.10
2018-12-19T08:31:35.658Z,16.80
2018-12-19T08:34:03.896Z,16.70
2018-12-19T08:36:32.105Z,19.17
2018-12-19T08:39:00.233Z,21.47
2018-12-19T08:41:29.853Z,17.47
2018-12-19T08:43:58.154Z,16.73
2018-12-19T08:46:26.306Z,19.07
2018-12-19T08:48:54.561Z,18.67
2018-12-19T08:51:22.811Z,17.13
2018-12-19T08:53:50.934Z,19.63
2018-12-19T08:56:19.099Z,19.43
2018-12-19T08:58:47.222Z,23.10
2018-12-19T09:01:15.379Z,20.93
2018-12-19T09:03:43.598Z,19.97
2018-12-19T09:06:11.801Z,21.37
2018-12-19T09:08:39.939Z,20.67
2018-12-19T09:11:08.085Z,21.47
2018-12-19T09:13:36.378Z,21.60
2018-12-19T09:16:04.570Z,19.63
2018-12-19T09:18:32.788Z,20.77
2018-12-19T09:21:00.991Z,22.13
2018-12-19T09:23:29.199Z,19.33
2018-12-19T09:25:57.454Z,17.93
2018-12-19T09:28:25.669Z,22.60
2018-12-19T09:30:53.911Z,18.87
2018-12-19T09:33:27.392Z,19.50
2018-12-19T09:35:52.412Z,22.00
2018-12-19T09:38:20.553Z,21.00
2018-12-19T09:40:48.868Z,18.77
2018-12-19T09:43:17.098Z,23.90
2018-12-19T09:45:45.402Z,22.07
2018-12-19T09:48:13.711Z,22.67
2018-12-19T09:50:41.938Z,23.20
2018-12-19T09:53:10.186Z,22.07
2018-12-19T09:55:38.428Z,23.33
2018-12-19T09:58:06.557Z,24.03
2018-12-19T10:00:34.934Z,22.57
2018-12-19T10:03:03.650Z,22.33
2018-12-19T10:05:32.083Z,22.63
2018-12-19T10:08:00.223Z,20.97
2018-12-19T10:10:28.372Z,22.63
2018-12-19T10:12:56.598Z,19.30
2018-12-19T10:15:24.735Z,24.37
2018-12-19T10:17:52.885Z,22.00
2018-12-19T10:20:21.619Z,22.37
2018-12-19T10:22:51.807Z,21.70
2018-12-19T10:25:19.974Z,20.27
2018-12-19T10:27:49.162Z,20.90
2018-12-19T10:30:17.445Z,20.30
2018-12-19T10:32:47.599Z,22.27
2018-12-19T10:35:15.738Z,22.80
2018-12-19T10:37:43.881Z,20.43
2018-12-19T10:40:12.053Z,21.07
2018-12-19T10:42:40.351Z,24.00
2018-12-19T10:45:08.577Z,23.90
2018-12-19T10:47:36.717Z,21.27
2018-12-19T10:50:06.617Z,23.87
2018-12-19T10:52:34.892Z,20.00
2018-12-19T10:55:03.761Z,21.97
2018-12-19T10:57:32.063Z,20.27
2018-12-19T11:00:00.285Z,20.40
2018-12-19T11:02:28.507Z,26.03
2018-12-19T11:04:56.641Z,25.03
2018-12-19T11:07:24.786Z,20.70
2018-12-19T11:09:52.951Z,19.70
2018-12-19T11:12:21.141Z,23.00
2018-12-19T11:14:49.322Z,21.83
2018-12-19T11:17:17.527Z,25.63
2018-12-19T11:19:45.721Z,22.50
2018-12-19T11:22:13.938Z,24.10
2018-12-19T11:24:42.147Z,22.90
2018-12-19T11:27:10.285Z,25.80
2018-12-19T11:29:38.477Z,24.23
2018-12-19T11:32:06.815Z,25.50
2018-12-19T11:34:34.994Z,23.77
2018-12-19T11:37:03.165Z,24.77
2018-12-19T11:39:31.657Z,28.27
2018-12-19T11:41:59.940Z,23.33
2018-12-19T11:44:28.145Z,24.60
2018-12-19T11:46:56.396Z,24.67
2018-12-19T11:49:24.596Z,26.27
2018-12-19T11:51:52.730Z,22.23
2018-12-19T11:54:21.296Z,27.30
2018-12-19T11:56:49.485Z,27.27
2018-12-19T11:59:17.706Z,25.40
2018-12-19T12:01:46.919Z,27.50
2018-12-19T12:04:15.056Z,26.97
2018-12-19T12:06:43.241Z,27.60
2018-12-19T12:09:11.458Z,25.97
2018-12-19T12:11:45.462Z,25.40
2018-12-19T12:14:09.917Z,28.90
2018-12-19T12:16:38.082Z,25.40
2018-12-19T12:19:06.295Z,24.40
2018-12-19T12:21:34.443Z,26.20
2018-12-19T12:24:02.654Z,27.00
2018-12-19T12:26:30.789Z,27.67
2018-12-19T12:28:58.940Z,26.40
2018-12-19T12:31:27.463Z,27.90
2018-12-19T12:33:55.614Z,28.07
2018-12-19T12:36:23.773Z,28.63
2018-12-19T12:38:51.902Z,28.70
2018-12-19T12:41:20.094Z,28.77
2018-12-19T12:43:48.293Z,28.07
2018-12-19T12:46:16.446Z,26.73
2018-12-19T12:48:44.586Z,33.23
2018-12-19T12:51:12.816Z,30.07
2018-12-19T12:53:40.951Z,26.33
2018-12-19T12:56:09.269Z,30.03
2018-12-19T12:58:37.491Z,31.20
2018-12-19T13:01:05.727Z,25.83
2018-12-19T13:03:33.864Z,27.83
2018-12-19T13:06:02.182Z,27.73
2018-12-19T13:08:30.471Z,26.23
2018-12-19T13:10:58.636Z,27.80
2018-12-19T13:13:26.993Z,26.13
2018-12-19T13:15:55.942Z,25.47
2018-12-19T13:18:24.106Z,22.90
2018-12-19T13:20:52.299Z,21.13
2018-12-19T13:23:20.495Z,22.13
2018-12-19T13:25:48.712Z,24.60
2018-12-19T13:28:16.842Z,25.63
2018-12-19T13:30:44.990Z,19.53
2018-12-19T13:33:13.121Z,21.30
2018-12-19T13:35:41.252Z,17.80
2018-12-19T13:38:09.974Z,19.00
2018-12-19T13:40:38.114Z,19.20
2018-12-19T13:43:06.263Z,19.13
2018-12-19T13:45:34.416Z,17.77
2018-12-19T13:48:02.669Z,19.00
2018-12-19T13:50:30.840Z,17.80
2018-12-19T13:52:58.979Z,15.17
2018-12-19T13:55:27.117Z,15.67
2018-12-19T13:57:55.278Z,17.20
2018-12-19T14:00:23.816Z,13.80
2018-12-19T14:02:51.965Z,16.07
2018-12-19T14:05:20.824Z,13.73
2018-12-19T14:07:48.986Z,14.33
2018-12-19T14:10:17.128Z,13.60
2018-12-19T14:12:45.435Z,13.23
2018-12-19T14:15:14.229Z,15.50
2018-12-19T14:17:42.421Z,12.60
2018-12-19T14:20:10.789Z,17.43
2018-12-19T14:22:39.008Z,15.60
2018-12-19T14:25:07.500Z,15.13
2018-12-19T14:27:35.701Z,16.87
2018-12-19T14:30:05.776Z,16.47
2018-12-19T14:32:33.914Z,15.63
2018-12-19T14:35:02.053Z,20.20
2018-12-19T14:37:30.267Z,17.13
2018-12-19T14:39:58.493Z,16.63
2018-12-19T14:42:26.698Z,16.90
2018-12-19T14:44:55.084Z,18.10
2018-12-19T14:47:23.267Z,15.23
2018-12-19T14:49:51.399Z,14.73
2018-12-19T14:52:19.832Z,13.83
2018-12-19T14:54:48.057Z,16.43
2018-12-19T14:57:16.226Z,20.67
2018-12-19T14:59:44.515Z,16.67
2018-12-19T15:02:12.873Z,16.93
2018-12-19T15:04:41.049Z,13.53
2018-12-19T15:07:09.266Z,17.00
2018-12-19T15:09:37.488Z,16.13
2018-12-19T15:12:05.863Z,19.63
2018-12-19T15:14:34.026Z,16.17
2018-12-19T15:17:02.222Z,16.57
2018-12-19T15:19:30.433Z,16.57
2018-12-19T15:21:58.586Z,14.57
2018-12-19T15:24:26.962Z,19.47
2018-12-19T15:26:55.168Z,19.73
2018-12-19T15:29:23.321Z,18.93
2018-12-19T15:31:51.470Z,16.57
2018-12-19T15:34:19.637Z,12.77
2018-12-19T15:36:47.837Z,17.30
2018-12-19T15:39:16.717Z,18.13
2018-12-19T15:41:44.874Z,20.07
2018-12-19T15:44:13.010Z,12.93
2018-12-19T15:46:41.279Z,14.50
2018-12-19T15:49:09.389Z,17.30
2018-12-19T15:51:37.739Z,14.97
2018-12-19T15:54:05.934Z,16.83
2018-12-19T15:56:34.327Z,13.13
2018-12-19T15:59:02.536Z,14.33
2018-12-19T16:01:30.861Z,16.87
2018-12-19T16:03:59.264Z,14.93
2018-12-19T16:06:27.662Z,12.63
2018-12-19T16:08:55.829Z,20.00
2018-12-19T16:11:23.986Z,14.73
2018-12-19T16:13:52.117Z,14.37
2018-12-19T16:16:20.573Z,13.67
2018-12-19T16:18:48.738Z,16.50
2018-12-19T16:21:16.946Z,14.97
2018-12-19T16:23:45.089Z,15.37
2018-12-19T16:26:13.293Z,18.07
2018-12-19T16:28:41.550Z,10.80
2018-12-19T16:31:09.695Z,12.67
2018-12-19T16:33:37.983Z,11.00
2018-12-19T16:36:07.004Z,38.13
2018-12-19T16:38:35.383Z,12.90
2018-12-19T16:41:03.762Z,16.83
2018-12-19T16:43:31.892Z,17.93
2018-12-19T16:46:00.168Z,19.23
2018-12-19T16:48:28.362Z,18.27
2018-12-19T16:50:56.747Z,16.37
2018-12-19T16:53:24.896Z,13.03
2018-12-19T16:55:53.099Z,13.13
2018-12-19T16:58:21.386Z,15.43
2018-12-19T17:00:49.548Z,13.07
2018-12-19T17:03:17.755Z,14.53
2018-12-19T17:05:45.942Z,14.10
2018-12-19T17:08:14.392Z,13.27
2018-12-19T17:10:42.518Z,11.90
2018-12-19T17:13:10.647Z,13.20
2018-12-19T17:15:38.944Z,12.70
2018-12-19T17:18:07.098Z,14.30
2018-12-19T17:20:35.223Z,14.00
2018-12-19T17:23:03.369Z,18.73
2018-12-19T17:25:31.500Z,17.47
2018-12-19T17:27:59.642Z,12.23
2018-12-19T17:30:27.778Z,13.87
2018-12-19T17:32:55.963Z,12.57
2018-12-19T17:35:24.217Z,13.73
2018-12-19T17:37:52.372Z,14.37
2018-12-19T17:40:20.611Z,15.20
2018-12-19T17:42:51.760Z,15.33
2018-12-19T17:45:19.967Z,15.83
2018-12-19T17:47:48.255Z,13.97
2018-12-19T17:50:17.809Z,17.17
2018-12-19T17:52:45.962Z,19.77
2018-12-19T17:55:14.091Z,16.57
2018-12-19T17:57:42.859Z,14.73
2018-12-19T18:00:12.005Z,16.53
2018-12-19T18:02:40.250Z,13.10
2018-12-19T18:05:08.406Z,15.13
2018-12-19T18:07:36.568Z,13.20
2018-12-19T18:10:15.092Z,11.17
2018-12-19T18:12:44.018Z,12.03
2018-12-19T18:15:12.338Z,17.40
2018-12-19T18:17:40.513Z,12.03
2018-12-19T18:20:08.737Z,13.00
2018-12-19T18:22:36.962Z,11.07
2018-12-19T18:25:05.414Z,13.30
2018-12-19T18:27:33.683Z,14.70
2018-12-19T18:30:03.354Z,10.37
2018-12-19T18:32:32.382Z,9.80
2018-12-19T18:35:00.539Z,12.83
2018-12-19T18:37:28.743Z,9.53
2018-12-19T18:39:57.115Z,11.13
2018-12-19T18:42:25.443Z,10.33
2018-12-19T18:44:54.588Z,13.93
2018-12-19T18:47:22.762Z,13.87
2018-12-19T18:49:51.114Z,12.30
2018-12-19T18:52:19.266Z,13.13
2018-12-19T18:54:47.704Z,9.30
2018-12-19T18:57:15.833Z,10.70
2018-12-19T18:59:44.006Z,11.33
2018-12-19T19:02:12.304Z,12.77
2018-12-19T19:04:40.436Z,13.50
2018-12-19T19:07:08.691Z,14.77
2018-12-19T19:09:36.996Z,9.37
2018-12-19T19:12:05.182Z,10.93
2018-12-19T19:14:33.781Z,14.20
2018-12-19T19:17:02.018Z,10.70
2018-12-19T19:19:30.222Z,15.43
2018-12-19T19:21:58.380Z,11.93
2018-12-19T19:24:26.499Z,13.50
2018-12-19T19:26:54.790Z,18.33
2018-12-19T19:29:23.129Z,14.87
2018-12-19T19:31:51.272Z,17.70
2018-12-19T19:34:24.975Z,11.17
2018-12-19T19:36:50.291Z,11.90
2018-12-19T19:39:18.498Z,13.20
2018-12-19T19:41:46.647Z,12.60
2018-12-19T19:44:14.801Z,13.37
2018-12-19T19:46:42.951Z,12.53
2018-12-19T19:49:11.185Z,15.50
2018-12-19T19:51:39.412Z,16.80
2018-12-19T19:54:07.545Z,14.70
2018-12-19T19:56:35.713Z,14.50
2018-12-19T19:59:03.915Z,16.33
2018-12-19T20:01:32.206Z,11.53
2018-12-19T20:04:01.316Z,16.93
2018-12-19T20:06:29.618Z,13.10
2018-12-19T20:08:57.908Z,13.20
2018-12-19T20:11:26.063Z,12.23
2018-12-19T20:13:54.210Z,11.43
2018-12-19T20:16:22.401Z,12.80
2018-12-19T20:18:50.584Z,11.00
2018-12-19T20:21:18.775Z,14.43
2018-12-19T20:23:47.059Z,12.30
2018-12-19T20:26:15.273Z,11.97
2018-12-19T20:28:43.399Z,14.00
2018-12-19T20:31:11.570Z,14.30
2018-12-19T20:33:39.703Z,13.17
2018-12-19T20:36:07.902Z,14.40
2018-12-19T20:38:36.045Z,12.40
2018-12-19T20:41:04.322Z,13.13
2018-12-19T20:43:32.456Z,11.93
2018-12-19T20:46:00.734Z,10.00
2018-12-19T20:48:29.149Z,12.73
2018-12-19T20:50:57.350Z,16.60
2018-12-19T20:53:25.557Z,11.73
2018-12-19T20:55:53.729Z,15.67
2018-12-19T20:58:21.859Z,10.87
2018-12-19T21:00:50.127Z,12.33
2018-12-19T21:03:18.384Z,14.13
2018-12-19T21:05:46.564Z,15.50
2018-12-19T21:08:14.753Z,12.40
2018-12-19T21:10:42.962Z,13.30
2018-12-19T21:13:11.273Z,12.03
2018-12-19T21:15:39.479Z,15.47
2018-12-19T21:18:13.277Z,12.93
2018-12-19T21:20:41.471Z,15.53
2018-12-19T21:23:09.693Z,13.23
2018-12-19T21:25:37.835Z,11.90
2018-12-19T21:28:05.970Z,12.70
2018-12-19T21:30:34.158Z,10.97
2018-12-19T21:33:02.293Z,15.87
2018-12-19T21:35:30.431Z,12.67
2018-12-19T21:37:58.693Z,12.13
2018-12-19T21:40:26.971Z,15.17
2018-12-19T21:42:56.564Z,11.53
2018-12-19T21:45:24.920Z,10.03
2018-12-19T21:47:53.150Z,14.97
2018-12-19T21:50:21.394Z,13.27
2018-12-19T21:52:49.619Z,11.50
2018-12-19T21:55:17.754Z,14.57
2018-12-19T21:57:45.983Z,11.50
2018-12-19T22:00:17.306Z,15.80
2018-12-19T22:02:45.443Z,13.40
2018-12-19T22:05:13.924Z,12.37
2018-12-19T22:07:42.183Z,12.60
2018-12-19T22:10:10.329Z,10.93
2018-12-19T22:12:38.527Z,14.33
2018-12-19T22:15:07.202Z,14.47
2018-12-19T22:17:41.280Z,12.57
2018-12-19T22:20:09.493Z,11.77
2018-12-19T22:22:37.713Z,12.50
2018-12-19T22:25:06.070Z,13.93
2018-12-19T22:27:34.355Z,18.37
2018-12-19T22:30:04.185Z,13.30
2018-12-19T22:32:32.407Z,12.47
2018-12-19T22:35:00.618Z,11.50
2018-12-19T22:37:29.386Z,14.77
2018-12-19T22:39:57.534Z,11.93
2018-12-19T22:42:25.811Z,14.30
2018-12-19T22:44:54.210Z,13.27
2018-12-19T22:47:22.538Z,15.90
2018-12-19T22:49:50.771Z,13.50
2018-12-19T22:52:18.987Z,14.30
2018-12-19T22:54:47.235Z,12.40
2018-12-19T22:57:15.424Z,13.17
2018-12-19T22:59:43.665Z,13.80
2018-12-19T23:02:17.660Z,15.00
2018-12-19T23:04:45.904Z,10.27
2018-12-19T23:07:14.331Z,17.87
2018-12-19T23:09:42.647Z,13.17
2018-12-19T23:12:10.841Z,15.90
2018-12-19T23:14:39.420Z,17.43
2018-12-19T23:20:09.965Z,13.07
2018-12-19T23:22:38.144Z,12.90
2018-12-19T23:25:07.041Z,14.93
2018-12-19T23:27:35.173Z,19.43
2018-12-19T23:30:05.565Z,16.53
2018-12-19T23:32:33.702Z,19.10
2018-12-19T23:35:01.941Z,16.27
2018-12-19T23:37:30.159Z,18.73
2018-12-19T23:39:58.416Z,18.57
2018-12-19T23:42:27.338Z,18.60
2018-12-19T23:44:55.542Z,19.67
2018-12-19T23:47:23.798Z,15.77
2018-12-19T23:49:52.103Z,16.77
2018-12-19T23:52:20.304Z,19.00
2018-12-19T23:54:48.584Z,18.57
2018-12-19T23:57:16.816Z,17.37
2018-12-19T23:59:45.057Z,16.63
